This is the latest recevied weather packets stored in our database for station/object KD9IXX-13. If no packets are shown the sender has not sent any weather packets the latest 10 day(s).
| Time | Temp. | Humidity | Pressure | Rain* | Wind** | Luminosity | Snow |
|---|---|---|---|---|---|---|---|
| 1788033302 | 26.11° C | 69% | 1021.3 hPa | 0 mm | - | 251 W/m² | - |
| 1788033002 | 26.67° C | 68% | 1021.1 hPa | 0 mm | - | 246 W/m² | - |
| 1788032402 | 26.67° C | 67% | 1021.3 hPa | 0 mm | - | 246 W/m² | - |
| 1788031802 | 26.67° C | 65% | 1021.2 hPa | 0 mm | - | 297 W/m² | - |
| 1788031503 | 26.67° C | 65% | 1021.3 hPa | 0 mm | - | 311 W/m² | - |
| 1788030902 | 27.78° C | 65% | 1021 hPa | 0 mm | - | 351 W/m² | - |
| 1788030602 | 27.78° C | 63% | 1021 hPa | 0 mm | - | 415 W/m² | - |
| 1788030003 | 27.22° C | 65% | 1021.3 hPa | 0 mm | - | 472 W/m² | - |
| 1788029402 | 26.67° C | 67% | 1021.1 hPa | 0 mm | - | 412 W/m² | - |
| 1788028202 | 26.67° C | 68% | 1021.3 hPa | 0 mm | - | 288 W/m² | - |
| 1788027902 | 26.67° C | 67% | 1021.5 hPa | 0 mm | - | 291 W/m² | - |
| 1788026702 | 27.22° C | 66% | 1021.5 hPa | 0 mm | - | 494 W/m² | - |
| 1788025802 | 27.78° C | 68% | 1022 hPa | 0 mm | - | 553 W/m² | - |
| 1788025502 | 27.22° C | 67% | 1022 hPa | 0 mm | - | 479 W/m² | - |
| 1788025201 | 26.67° C | 69% | 1021.9 hPa | 0 mm | - | 501 W/m² | - |
| 1788023702 | 27.22° C | 69% | 1022.5 hPa | 0 mm | - | 479 W/m² | - |
| 1788022502 | 25.56° C | 72% | 1022.7 hPa | 0 mm | - | 476 W/m² | - |
| 1788021902 | 25.56° C | 73% | 1022.6 hPa | 0 mm | - | 508 W/m² | - |
| 1788021301 | 25.56° C | 72% | 1022.7 hPa | 0 mm | - | 525 W/m² | - |
| 1788020402 | 25° C | 77% | 1023 hPa | 0 mm | - | 467 W/m² | - |
| 1788019502 | 24.44° C | 76% | 1023 hPa | 0 mm | - | 377 W/m² | - |
| 1788019202 | 24.44° C | 78% | 1023.5 hPa | 0 mm | - | 467 W/m² | - |
| 1788017702 | 22.78° C | 82% | 1023.5 hPa | 0 mm | - | 296 W/m² | - |
| 1788017402 | 22.78° C | 82% | 1023.4 hPa | 0 mm | - | 278 W/m² | - |
| 1788016802 | 22.78° C | 84% | 1023.4 hPa | 0 mm | - | 244 W/m² | - |
* Rain latest hour (hover to see other rain measurements)
** Current wind speed in m/s (hover to see current wind gust speed)